createdAt,value
2023-03-16T00:01:10.375Z,73.69
2023-03-16T00:03:41.795Z,73.73
2023-03-16T00:06:12.515Z,73.64
2023-03-16T00:08:44.142Z,73.95
2023-03-16T00:11:14.795Z,73.96
2023-03-16T00:13:47.302Z,73.56
2023-03-16T00:16:17.829Z,73.50
2023-03-16T00:18:48.558Z,73.26
2023-03-16T00:21:19.194Z,72.37
2023-03-16T00:23:49.778Z,72.46
2023-03-16T00:26:20.907Z,72.46
2023-03-16T00:28:55.235Z,72.83
2023-03-16T00:31:26.178Z,72.68
2023-03-16T00:33:56.960Z,73.39
2023-03-16T00:36:27.514Z,73.70
2023-03-16T00:38:58.070Z,74.03
2023-03-16T00:41:28.657Z,73.99
2023-03-16T00:44:02.030Z,73.33
2023-03-16T00:46:32.632Z,73.52
2023-03-16T00:49:03.812Z,73.58
2023-03-16T00:51:34.880Z,73.94
2023-03-16T00:54:06.480Z,74.51
2023-03-16T00:56:37.035Z,74.77
2023-03-16T00:59:09.782Z,75.08
2023-03-16T01:01:40.414Z,75.40
2023-03-16T01:04:11.869Z,76.15
2023-03-16T01:06:42.778Z,76.46
2023-03-16T01:09:15.709Z,78.18
2023-03-16T01:11:46.236Z,79.27
2023-03-16T01:14:18.589Z,79.93
2023-03-16T01:16:49.143Z,80.23
2023-03-16T01:19:19.631Z,80.73
2023-03-16T01:21:50.217Z,81.53
2023-03-16T01:24:20.861Z,82.38
2023-03-16T01:26:51.562Z,82.93
2023-03-16T01:29:27.175Z,83.52
2023-03-16T01:31:57.905Z,83.92
2023-03-16T01:34:28.522Z,84.30
2023-03-16T01:36:59.342Z,84.91
2023-03-16T01:39:30.175Z,84.72
2023-03-16T01:42:00.655Z,84.52
2023-03-16T01:44:35.951Z,84.83
2023-03-16T01:47:06.507Z,85.11
2023-03-16T01:49:39.518Z,85.80
2023-03-16T01:52:15.387Z,85.47
2023-03-16T01:54:49.382Z,86.41
2023-03-16T01:57:22.889Z,86.90
2023-03-16T01:59:57.741Z,87.00
2023-03-16T02:02:33.302Z,86.17
2023-03-16T02:05:07.044Z,86.58
2023-03-16T02:07:40.964Z,86.65
2023-03-16T02:10:13.998Z,86.37
2023-03-16T02:12:45.588Z,86.47
2023-03-16T02:15:18.106Z,86.47
2023-03-16T02:17:50.044Z,86.33
2023-03-16T02:20:36.099Z,86.91
2023-03-16T02:23:08.658Z,87.11
2023-03-16T02:25:49.185Z,87.27
2023-03-16T02:28:28.094Z,87.31
2023-03-16T02:31:01.094Z,87.03
2023-03-16T02:33:33.695Z,87.46
2023-03-16T02:36:04.590Z,87.72
2023-03-16T02:38:35.184Z,88.19
2023-03-16T02:41:14.670Z,88.62
2023-03-16T02:43:50.777Z,89.21
2023-03-16T02:46:24.530Z,89.50
2023-03-16T02:49:03.844Z,89.83
2023-03-16T02:51:34.629Z,90.59
2023-03-16T02:54:05.366Z,90.75
2023-03-16T02:56:35.872Z,90.54
2023-03-16T02:59:06.431Z,90.52
2023-03-16T03:01:39.004Z,91.00
2023-03-16T03:04:09.978Z,90.38
2023-03-16T03:06:40.885Z,90.83
2023-03-16T03:09:12.512Z,91.06
2023-03-16T03:11:43.353Z,91.66
2023-03-16T03:14:14.052Z,91.78
2023-03-16T03:16:47.535Z,92.02
2023-03-16T03:19:18.104Z,92.44
2023-03-16T03:21:48.665Z,93.01
2023-03-16T03:24:19.672Z,92.93
2023-03-16T03:26:50.223Z,93.37
2023-03-16T03:29:21.609Z,93.33
2023-03-16T03:31:53.925Z,93.25
2023-03-16T03:34:27.508Z,93.33
2023-03-16T03:36:58.261Z,93.16
2023-03-16T03:39:28.837Z,93.53
2023-03-16T03:41:59.440Z,93.42
2023-03-16T03:44:30.007Z,93.32
2023-03-16T03:47:02.361Z,92.56
2023-03-16T03:49:33.235Z,92.36
2023-03-16T03:52:05.949Z,91.91
2023-03-16T03:54:36.720Z,90.71
2023-03-16T03:57:08.119Z,90.43
2023-03-16T03:59:43.577Z,90.44
2023-03-16T04:02:16.747Z,90.04
2023-03-16T04:04:47.732Z,89.90
2023-03-16T04:07:18.392Z,89.96
2023-03-16T04:09:48.932Z,88.73
2023-03-16T04:12:19.492Z,88.87
2023-03-16T04:14:50.076Z,88.67
2023-03-16T04:17:22.222Z,88.80
2023-03-16T04:19:52.857Z,88.86
2023-03-16T04:22:24.200Z,89.26
2023-03-16T04:24:54.820Z,89.60
2023-03-16T04:27:25.401Z,89.75
2023-03-16T04:29:59.635Z,90.18
2023-03-16T04:32:32.596Z,90.24
2023-03-16T04:35:03.116Z,90.35
2023-03-16T04:37:35.330Z,90.77
2023-03-16T04:40:12.656Z,89.83
2023-03-16T04:42:43.175Z,90.24
2023-03-16T04:45:15.049Z,91.21
2023-03-16T04:47:47.146Z,90.73
2023-03-16T04:50:17.716Z,90.53
2023-03-16T04:52:48.289Z,90.69
2023-03-16T04:55:18.883Z,89.91
2023-03-16T04:57:49.396Z,90.46
2023-03-16T05:00:21.517Z,91.12
2023-03-16T05:02:54.285Z,90.80
2023-03-16T05:05:25.100Z,91.27
2023-03-16T05:07:55.551Z,91.31
2023-03-16T05:10:26.319Z,91.56
2023-03-16T05:12:57.632Z,91.80
2023-03-16T05:15:28.547Z,91.83
2023-03-16T05:18:00.732Z,91.68
2023-03-16T05:20:31.329Z,92.02
2023-03-16T05:23:01.891Z,91.89
2023-03-16T05:25:32.375Z,91.93
2023-03-16T05:28:03.033Z,92.33
2023-03-16T05:30:33.648Z,92.37
2023-03-16T05:33:05.948Z,92.57
2023-03-16T05:35:36.745Z,92.42
2023-03-16T05:38:10.731Z,92.57
2023-03-16T05:40:41.591Z,92.72
2023-03-16T05:43:12.068Z,92.92
2023-03-16T05:45:42.436Z,92.99
2023-03-16T05:48:14.696Z,93.38
2023-03-16T05:50:45.153Z,93.93
2023-03-16T05:53:16.259Z,94.68
2023-03-16T05:55:46.746Z,94.57
2023-03-16T05:58:17.230Z,94.92
2023-03-16T06:00:47.710Z,94.46
2023-03-16T06:03:19.836Z,94.74
2023-03-16T06:05:51.007Z,94.96
2023-03-16T06:08:21.456Z,94.38
2023-03-16T06:10:51.896Z,94.00
2023-03-16T06:13:22.444Z,93.77
2023-03-16T06:15:53.363Z,93.37
2023-03-16T06:18:25.468Z,93.38
2023-03-16T06:20:56.072Z,93.26
2023-03-16T06:23:26.517Z,92.93
2023-03-16T06:25:57.141Z,93.02
2023-03-16T06:28:28.239Z,92.71
2023-03-16T06:30:59.871Z,93.31
2023-03-16T06:33:32.409Z,93.26
2023-03-16T06:36:03.500Z,93.36
2023-03-16T06:38:34.502Z,93.02
2023-03-16T06:41:04.918Z,92.53
2023-03-16T06:43:35.406Z,92.73
2023-03-16T06:46:05.888Z,91.63
2023-03-16T06:48:38.046Z,91.01
2023-03-16T06:51:09.501Z,91.14
2023-03-16T06:53:40.054Z,91.05
2023-03-16T06:56:11.057Z,91.68
2023-03-16T06:58:41.574Z,92.33
2023-03-16T07:01:13.338Z,92.44
2023-03-16T07:03:45.433Z,92.86
2023-03-16T07:06:15.870Z,93.33
2023-03-16T07:08:46.429Z,93.28
2023-03-16T07:11:17.079Z,92.79
2023-03-16T07:13:47.712Z,92.91
2023-03-16T07:16:18.280Z,92.69
2023-03-16T07:18:50.250Z,92.38
2023-03-16T07:21:21.003Z,92.31
2023-03-16T07:23:51.517Z,92.46
2023-03-16T07:26:22.156Z,91.84
2023-03-16T07:28:52.733Z,91.13
2023-03-16T07:31:23.408Z,89.72
2023-03-16T07:33:55.692Z,88.47
2023-03-16T07:36:26.751Z,87.73
2023-03-16T07:38:57.386Z,86.98
2023-03-16T07:41:28.048Z,85.81
2023-03-16T07:43:59.249Z,85.19
2023-03-16T07:46:29.864Z,85.33
2023-03-16T07:49:02.213Z,85.21
2023-03-16T07:51:32.668Z,85.33
2023-03-16T07:54:03.093Z,85.61
2023-03-16T07:56:47.444Z,83.58
2023-03-16T07:59:20.954Z,81.90
2023-03-16T08:01:51.859Z,79.77
2023-03-16T08:04:28.937Z,79.83
2023-03-16T08:07:01.942Z,79.77
2023-03-16T08:09:32.365Z,80.41
2023-03-16T08:12:02.910Z,80.60
2023-03-16T08:14:36.433Z,80.14
2023-03-16T08:17:18.374Z,79.45
2023-03-16T08:19:50.472Z,78.72
2023-03-16T08:22:21.892Z,78.93
2023-03-16T08:24:53.276Z,78.44
2023-03-16T08:27:23.782Z,78.90
2023-03-16T08:29:58.583Z,78.97
2023-03-16T08:32:29.340Z,78.94
2023-03-16T08:35:01.525Z,79.15
2023-03-16T08:37:32.200Z,78.14
2023-03-16T08:40:06.238Z,76.48
2023-03-16T08:42:41.446Z,76.79
2023-03-16T08:45:14.403Z,77.20
2023-03-16T08:47:45.156Z,77.89
2023-03-16T08:50:17.589Z,77.97
2023-03-16T08:52:51.142Z,77.34
2023-03-16T08:55:21.838Z,77.37
2023-03-16T08:57:52.845Z,76.76
2023-03-16T09:00:24.431Z,76.63
2023-03-16T09:02:55.669Z,77.14
2023-03-16T09:05:29.385Z,77.02
2023-03-16T09:08:07.033Z,77.04
2023-03-16T09:10:39.958Z,76.48
2023-03-16T09:13:13.300Z,75.90
2023-03-16T09:15:43.861Z,75.76
2023-03-16T09:18:14.601Z,76.55
2023-03-16T09:20:48.630Z,75.88
2023-03-16T09:23:19.588Z,75.90
2023-03-16T09:25:55.661Z,75.93
2023-03-16T09:28:26.247Z,75.84
2023-03-16T09:30:57.666Z,75.05
2023-03-16T09:33:29.720Z,75.23
2023-03-16T09:36:07.175Z,75.14
2023-03-16T09:38:38.303Z,74.81
2023-03-16T09:41:12.417Z,74.82
2023-03-16T09:44:02.927Z,74.88
2023-03-16T09:46:39.638Z,75.40
2023-03-16T09:49:12.394Z,75.80
2023-03-16T09:51:52.212Z,75.47
2023-03-16T09:54:34.345Z,75.00
2023-03-16T09:57:09.545Z,75.63
2023-03-16T09:59:40.025Z,75.02
2023-03-16T10:02:32.420Z,75.13
2023-03-16T10:05:10.664Z,75.17
2023-03-16T10:07:53.170Z,75.39
2023-03-16T10:10:43.202Z,75.18
2023-03-16T10:13:19.640Z,75.03
2023-03-16T10:15:51.991Z,75.39
2023-03-16T10:18:26.042Z,75.46
2023-03-16T10:20:57.586Z,75.61
2023-03-16T10:23:30.231Z,75.27
2023-03-16T10:26:01.454Z,75.53
2023-03-16T10:28:34.643Z,75.61
2023-03-16T10:31:05.838Z,75.69
2023-03-16T10:33:38.573Z,75.64
2023-03-16T10:36:35.494Z,75.65
2023-03-16T10:39:34.347Z,75.82
2023-03-16T10:42:04.868Z,75.99
2023-03-16T10:44:42.490Z,75.94
2023-03-16T10:47:25.776Z,76.02
2023-03-16T10:49:56.552Z,75.60
2023-03-16T10:52:34.213Z,76.08
2023-03-16T10:55:13.872Z,76.25
2023-03-16T10:57:52.298Z,76.31
2023-03-16T11:00:32.931Z,75.94
2023-03-16T11:03:03.833Z,75.88
2023-03-16T11:05:37.067Z,75.96
2023-03-16T11:08:14.521Z,76.52
2023-03-16T11:10:56.013Z,76.46
2023-03-16T11:13:35.949Z,76.19
2023-03-16T11:16:20.166Z,75.85
2023-03-16T11:19:15.837Z,76.13
2023-03-16T11:22:01.376Z,75.71
2023-03-16T11:24:42.728Z,75.41
2023-03-16T11:27:49.772Z,75.43
2023-03-16T11:30:31.822Z,75.32
2023-03-16T11:33:05.106Z,75.87
2023-03-16T11:35:59.226Z,75.53
2023-03-16T11:38:37.101Z,75.64
2023-03-16T11:41:10.189Z,76.08
2023-03-16T11:43:58.049Z,76.16
2023-03-16T11:46:31.783Z,76.25
2023-03-16T11:49:33.363Z,76.39
2023-03-16T11:52:16.351Z,76.57
2023-03-16T11:55:04.088Z,76.75
2023-03-16T11:57:51.743Z,76.81
2023-03-16T12:00:33.539Z,76.61
2023-03-16T12:03:41.126Z,76.94
2023-03-16T12:06:25.758Z,77.03
2023-03-16T12:09:15.395Z,77.65
2023-03-16T12:11:57.644Z,77.81
2023-03-16T12:14:33.083Z,77.84
2023-03-16T12:17:17.294Z,77.67
2023-03-16T12:19:52.950Z,77.98
2023-03-16T12:22:28.538Z,78.24
2023-03-16T12:24:59.129Z,78.19
2023-03-16T12:27:40.174Z,78.23
2023-03-16T12:30:31.144Z,78.62
2023-03-16T12:33:30.723Z,78.43
2023-03-16T12:36:09.159Z,78.68
2023-03-16T12:38:48.500Z,78.71
2023-03-16T12:41:34.586Z,78.75
2023-03-16T12:44:18.295Z,78.68
2023-03-16T12:46:58.577Z,78.34
2023-03-16T12:49:34.913Z,78.40
2023-03-16T12:52:08.188Z,78.07
2023-03-16T12:54:41.235Z,77.48
2023-03-16T12:57:17.727Z,77.40
2023-03-16T12:59:51.494Z,76.31
2023-03-16T13:02:30.591Z,76.00
2023-03-16T13:05:05.835Z,75.90
2023-03-16T13:07:44.411Z,75.23
2023-03-16T13:10:17.500Z,75.45
2023-03-16T13:12:52.407Z,75.19
2023-03-16T13:15:41.336Z,75.25
2023-03-16T13:18:28.590Z,75.20
2023-03-16T13:21:03.293Z,75.09
2023-03-16T13:24:04.633Z,74.92
2023-03-16T13:26:44.255Z,75.02
2023-03-16T13:29:26.815Z,75.15
2023-03-16T13:32:00.001Z,74.60
2023-03-16T13:34:36.113Z,74.75
2023-03-16T13:37:18.160Z,74.83
2023-03-16T13:39:56.066Z,74.48
2023-03-16T13:42:28.210Z,74.07
2023-03-16T13:45:00.175Z,73.66
2023-03-16T13:47:31.525Z,73.72
2023-03-16T13:50:03.466Z,73.83
2023-03-16T13:52:38.401Z,73.72
2023-03-16T13:55:37.380Z,73.71
2023-03-16T13:58:08.923Z,73.57
2023-03-16T14:00:40.565Z,73.79
2023-03-16T14:03:17.040Z,73.63
2023-03-16T14:05:48.497Z,74.18
2023-03-16T14:08:23.494Z,74.21
2023-03-16T14:11:00.618Z,74.25
2023-03-16T14:13:39.144Z,74.44
2023-03-16T14:16:17.515Z,74.45
2023-03-16T14:18:52.868Z,74.12
2023-03-16T14:21:26.582Z,74.81
2023-03-16T14:24:02.905Z,75.63
2023-03-16T14:26:43.852Z,75.04
2023-03-16T14:29:33.229Z,75.59
2023-03-16T14:32:04.209Z,75.54
2023-03-16T14:34:38.011Z,74.89
2023-03-16T14:37:10.607Z,74.62
2023-03-16T14:39:43.269Z,74.80
2023-03-16T14:42:22.341Z,75.47
2023-03-16T14:44:53.234Z,75.55
2023-03-16T14:47:27.666Z,76.25
2023-03-16T14:50:00.210Z,76.80
2023-03-16T14:52:33.852Z,77.06
2023-03-16T14:55:18.399Z,77.44
2023-03-16T14:57:50.331Z,78.44
2023-03-16T15:00:22.901Z,79.56
2023-03-16T15:03:03.981Z,80.55
2023-03-16T15:05:38.024Z,81.64
2023-03-16T15:08:10.413Z,82.46
2023-03-16T15:10:42.713Z,82.79
2023-03-16T15:13:35.372Z,83.31
2023-03-16T15:16:06.695Z,83.86
2023-03-16T15:18:38.486Z,84.00
2023-03-16T15:21:14.687Z,84.45
2023-03-16T15:23:46.327Z,84.84
2023-03-16T15:26:24.462Z,85.00
2023-03-16T15:28:55.505Z,84.89
2023-03-16T15:31:26.305Z,84.62
2023-03-16T15:33:56.804Z,85.21
2023-03-16T15:36:27.563Z,85.47
2023-03-16T15:38:58.394Z,85.11
2023-03-16T15:41:41.453Z,85.01
2023-03-16T15:44:17.612Z,84.90
2023-03-16T15:46:48.854Z,84.93
2023-03-16T15:49:22.825Z,84.54
2023-03-16T15:51:53.703Z,83.97
2023-03-16T15:54:24.617Z,84.18
2023-03-16T15:57:01.436Z,83.83
2023-03-16T15:59:38.934Z,83.87
2023-03-16T16:02:31.195Z,84.33
2023-03-16T16:05:03.208Z,83.94
2023-03-16T16:07:33.953Z,83.76
2023-03-16T16:10:06.288Z,84.03
2023-03-16T16:12:39.243Z,84.21
2023-03-16T16:15:22.707Z,83.99
2023-03-16T16:18:19.426Z,83.38
2023-03-16T16:20:47.328Z,82.71
2023-03-16T16:23:18.945Z,82.01
2023-03-16T16:25:50.518Z,81.47
2023-03-16T16:28:25.389Z,80.98
2023-03-16T16:30:57.059Z,81.04
2023-03-16T16:33:31.147Z,81.21
2023-03-16T16:36:03.426Z,81.43
2023-03-16T16:38:35.119Z,81.43
2023-03-16T16:41:11.137Z,81.75
2023-03-16T16:43:45.624Z,81.76
2023-03-16T16:46:18.220Z,81.69
2023-03-16T16:48:51.438Z,81.76
2023-03-16T16:51:25.752Z,81.72
2023-03-16T16:53:57.970Z,81.87
2023-03-16T16:56:32.070Z,82.22
2023-03-16T16:59:16.308Z,82.62
2023-03-16T17:01:51.684Z,83.35
2023-03-16T17:04:26.583Z,82.64
2023-03-16T17:06:59.723Z,82.84
2023-03-16T17:09:32.769Z,82.63
2023-03-16T17:12:04.268Z,82.68
2023-03-16T17:14:36.847Z,82.54
2023-03-16T17:17:16.969Z,82.72
2023-03-16T17:19:47.672Z,83.17
2023-03-16T17:22:25.352Z,83.18
2023-03-16T17:24:56.462Z,83.34
2023-03-16T17:27:32.665Z,83.47
2023-03-16T17:30:05.337Z,83.59
2023-03-16T17:32:38.901Z,82.86
2023-03-16T17:35:22.596Z,82.79
2023-03-16T17:37:53.139Z,82.08
2023-03-16T17:40:27.770Z,82.22
2023-03-16T17:42:58.425Z,82.31
2023-03-16T17:45:31.461Z,82.59
2023-03-16T17:48:02.185Z,82.23
2023-03-16T17:50:35.953Z,81.83
2023-03-16T17:53:06.612Z,81.89
2023-03-16T17:55:37.551Z,81.71
2023-03-16T17:58:08.688Z,81.39
2023-03-16T18:00:43.219Z,81.94
2023-03-16T18:03:16.206Z,82.14
2023-03-16T18:05:49.376Z,82.20
2023-03-16T18:08:22.628Z,82.36
2023-03-16T18:10:59.269Z,82.62
2023-03-16T18:13:33.461Z,82.61
2023-03-16T18:16:07.062Z,83.21
2023-03-16T18:18:40.885Z,83.11
2023-03-16T18:21:19.633Z,83.42
2023-03-16T18:23:50.333Z,83.08
2023-03-16T18:26:21.407Z,82.62
2023-03-16T18:28:54.319Z,82.98
2023-03-16T18:31:28.100Z,83.07
2023-03-16T18:34:08.636Z,82.69
2023-03-16T18:36:40.671Z,82.69
2023-03-16T18:39:21.249Z,82.38
2023-03-16T18:41:53.504Z,82.20
2023-03-16T18:44:26.670Z,82.85
2023-03-16T18:47:04.040Z,82.10
2023-03-16T18:49:37.375Z,82.19
2023-03-16T18:52:19.767Z,81.77
2023-03-16T18:54:54.154Z,82.08
2023-03-16T18:57:25.931Z,82.50
2023-03-16T18:59:56.965Z,82.05
2023-03-16T19:02:38.155Z,81.95
2023-03-16T19:05:13.951Z,81.80
2023-03-16T19:07:47.221Z,81.85
2023-03-16T19:10:25.375Z,81.74
2023-03-16T19:12:56.334Z,81.75
2023-03-16T19:15:29.071Z,81.92
2023-03-16T19:18:01.950Z,81.88
2023-03-16T19:20:35.098Z,81.56
2023-03-16T19:23:08.980Z,81.49
2023-03-16T19:25:42.242Z,82.47
2023-03-16T19:28:17.966Z,82.95
2023-03-16T19:30:48.495Z,82.65
2023-03-16T19:33:26.575Z,82.24
2023-03-16T19:35:59.619Z,82.31
2023-03-16T19:38:30.616Z,82.33
2023-03-16T19:41:03.358Z,82.74
2023-03-16T19:43:34.002Z,82.35
2023-03-16T19:46:04.809Z,82.09
2023-03-16T19:48:39.943Z,81.77
2023-03-16T19:51:13.480Z,81.35
2023-03-16T19:53:44.607Z,80.65
2023-03-16T19:56:20.622Z,80.54
2023-03-16T19:59:04.607Z,80.63
2023-03-16T20:01:35.993Z,80.89
2023-03-16T20:04:08.856Z,81.07
2023-03-16T20:06:39.386Z,80.49
2023-03-16T20:09:09.878Z,81.02
2023-03-16T20:11:40.449Z,80.91
2023-03-16T20:14:22.771Z,81.00
2023-03-16T20:16:53.916Z,80.62
2023-03-16T20:19:26.085Z,80.36
2023-03-16T20:21:56.547Z,80.41
2023-03-16T20:24:29.644Z,80.22
2023-03-16T20:27:00.503Z,80.80
2023-03-16T20:29:33.557Z,80.69
2023-03-16T20:32:05.576Z,80.93
2023-03-16T20:34:37.823Z,81.25
2023-03-16T20:37:22.740Z,81.32
2023-03-16T20:39:53.825Z,80.87
2023-03-16T20:42:28.644Z,80.86
2023-03-16T20:44:59.242Z,80.90
2023-03-16T20:47:30.330Z,81.82
2023-03-16T20:50:02.437Z,81.81
2023-03-16T20:52:33.174Z,81.39
2023-03-16T20:55:03.724Z,81.08
2023-03-16T20:57:34.644Z,80.50
2023-03-16T21:00:06.347Z,80.46
2023-03-16T21:02:37.446Z,81.02
2023-03-16T21:05:10.647Z,81.21
2023-03-16T21:07:41.413Z,81.35
2023-03-16T21:10:13.687Z,81.51
2023-03-16T21:12:47.267Z,81.46
2023-03-16T21:15:26.051Z,81.32
2023-03-16T21:18:00.355Z,81.62
2023-03-16T21:20:34.710Z,81.56
2023-03-16T21:23:05.823Z,81.20
2023-03-16T21:25:40.302Z,81.03
2023-03-16T21:28:13.652Z,81.47
2023-03-16T21:30:48.444Z,81.22
2023-03-16T21:33:24.538Z,81.09
2023-03-16T21:35:57.110Z,80.82
2023-03-16T21:38:27.911Z,80.72
2023-03-16T21:40:58.838Z,80.97
2023-03-16T21:43:29.516Z,81.06
2023-03-16T21:46:00.446Z,80.89
2023-03-16T21:48:38.297Z,80.31
2023-03-16T21:51:17.043Z,80.63
2023-03-16T21:53:48.762Z,80.58
2023-03-16T21:56:21.458Z,80.28
2023-03-16T21:58:53.065Z,79.50
2023-03-16T22:01:26.450Z,79.54
2023-03-16T22:03:59.714Z,79.14
2023-03-16T22:06:32.128Z,78.80
2023-03-16T22:09:03.864Z,78.71
2023-03-16T22:11:34.600Z,78.50
2023-03-16T22:14:05.594Z,78.50
2023-03-16T22:16:38.827Z,78.42
2023-03-16T22:19:15.370Z,78.13
2023-03-16T22:21:49.292Z,77.69
2023-03-16T22:24:23.189Z,77.23
2023-03-16T22:26:54.549Z,76.93
2023-03-16T22:29:27.184Z,76.42
2023-03-16T22:32:00.568Z,75.43
2023-03-16T22:34:34.505Z,75.13
2023-03-16T22:37:07.608Z,75.39
2023-03-16T22:39:40.472Z,75.54
2023-03-16T22:42:29.623Z,74.68
2023-03-16T22:45:00.397Z,73.68
2023-03-16T22:47:33.794Z,72.87
2023-03-16T22:50:04.428Z,71.95
2023-03-16T22:52:38.011Z,71.38
2023-03-16T22:55:09.979Z,69.71
2023-03-16T22:57:40.580Z,69.32
2023-03-16T23:00:14.936Z,68.80
2023-03-16T23:02:45.872Z,68.27
2023-03-16T23:05:25.416Z,68.31
2023-03-16T23:07:58.668Z,66.75
2023-03-16T23:10:30.912Z,66.51
2023-03-16T23:13:02.976Z,66.45
2023-03-16T23:24:07.567Z,62.94
2023-03-16T23:26:38.261Z,62.16
2023-03-16T23:29:08.849Z,62.83
2023-03-16T23:31:40.162Z,61.86
2023-03-16T23:34:13.728Z,61.94
2023-03-16T23:36:44.237Z,60.88
2023-03-16T23:39:16.351Z,61.45
2023-03-16T23:41:49.386Z,61.35
2023-03-16T23:44:22.311Z,61.40
2023-03-16T23:46:53.344Z,60.71
2023-03-16T23:49:26.933Z,61.11
2023-03-16T23:52:00.463Z,61.75
2023-03-16T23:54:34.397Z,61.78
2023-03-16T23:57:04.849Z,62.12
2023-03-16T23:59:35.441Z,63.22
